createdAt,value
2018-10-05T00:01:10.100Z,85.76
2018-10-05T00:03:40.730Z,85.57
2018-10-05T00:06:10.736Z,85.53
2018-10-05T00:08:41.574Z,85.72
2018-10-05T00:11:11.953Z,85.58
2018-10-05T00:13:42.340Z,85.87
2018-10-05T00:16:11.998Z,85.74
2018-10-05T00:18:41.510Z,85.86
2018-10-05T00:21:11.947Z,85.90
2018-10-05T00:23:41.527Z,85.70
2018-10-05T00:26:11.630Z,86.09
2018-10-05T00:28:42.234Z,86.32
2018-10-05T00:31:11.990Z,86.03
2018-10-05T00:33:41.737Z,86.37
2018-10-05T00:36:12.010Z,85.83
2018-10-05T00:38:41.703Z,85.96
2018-10-05T00:41:11.506Z,86.34
2018-10-05T00:43:41.020Z,86.38
2018-10-05T00:46:11.561Z,86.74
2018-10-05T00:48:43.125Z,86.58
2018-10-05T00:51:13.170Z,86.29
2018-10-05T00:53:42.682Z,86.50
2018-10-05T00:56:12.789Z,86.89
2018-10-05T00:58:42.178Z,86.78
2018-10-05T01:01:11.716Z,86.69
2018-10-05T01:03:42.534Z,86.59
2018-10-05T01:06:12.469Z,86.59
2018-10-05T01:08:41.943Z,86.47
2018-10-05T01:11:12.556Z,86.41
2018-10-05T01:13:42.285Z,86.69
2018-10-05T01:16:11.815Z,86.63
2018-10-05T01:18:41.759Z,86.89
2018-10-05T01:21:11.024Z,86.22
2018-10-05T01:23:42.170Z,86.41
2018-10-05T01:26:12.655Z,86.28
2018-10-05T01:28:42.419Z,86.56
2018-10-05T01:31:12.941Z,86.72
2018-10-05T01:33:43.330Z,86.19
2018-10-05T01:36:12.935Z,86.66
2018-10-05T01:38:43.011Z,86.44
2018-10-05T01:41:12.601Z,86.33
2018-10-05T01:43:42.493Z,85.81
2018-10-05T01:46:12.373Z,86.11
2018-10-05T01:48:42.563Z,86.06
2018-10-05T01:51:12.697Z,86.15
2018-10-05T01:53:42.453Z,86.07
2018-10-05T01:56:12.726Z,85.94
2018-10-05T01:58:42.499Z,85.86
2018-10-05T02:01:12.346Z,86.01
2018-10-05T02:03:41.905Z,86.03
2018-10-05T02:06:11.439Z,86.48
2018-10-05T02:08:41.010Z,86.52
2018-10-05T02:11:10.797Z,86.46
2018-10-05T02:13:40.160Z,86.23
2018-10-05T02:16:09.552Z,86.16
2018-10-05T02:18:39.278Z,86.37
2018-10-05T02:21:09.037Z,85.86
2018-10-05T02:23:38.745Z,85.80
2018-10-05T02:26:08.498Z,85.97
2018-10-05T02:28:38.130Z,86.54
2018-10-05T02:31:07.913Z,86.06
2018-10-05T02:33:37.319Z,86.21
2018-10-05T02:36:06.576Z,86.14
2018-10-05T02:38:35.875Z,85.71
2018-10-05T02:41:05.429Z,85.64
2018-10-05T02:43:35.213Z,85.84
2018-10-05T02:46:04.538Z,85.71
2018-10-05T02:48:34.488Z,85.83
2018-10-05T02:51:04.772Z,85.53
2018-10-05T02:53:34.136Z,86.12
2018-10-05T02:56:03.725Z,85.74
2018-10-05T02:58:33.161Z,85.80
2018-10-05T03:01:13.635Z,86.41
2018-10-05T03:03:43.691Z,86.00
2018-10-05T03:06:13.073Z,86.06
2018-10-05T03:08:42.564Z,85.83
2018-10-05T03:11:11.858Z,85.92
2018-10-05T03:13:41.870Z,86.11
2018-10-05T03:16:11.360Z,86.48
2018-10-05T03:18:41.048Z,86.10
2018-10-05T03:21:10.418Z,86.70
2018-10-05T03:23:40.041Z,86.72
2018-10-05T03:26:09.349Z,86.24
2018-10-05T03:28:38.913Z,86.36
2018-10-05T03:31:08.622Z,86.37
2018-10-05T03:33:38.326Z,86.26
2018-10-05T03:36:07.660Z,86.65
2018-10-05T03:38:37.138Z,86.85
2018-10-05T03:41:06.547Z,86.77
2018-10-05T03:43:36.085Z,87.03
2018-10-05T03:46:05.957Z,86.42
2018-10-05T03:48:35.622Z,86.87
2018-10-05T03:51:05.552Z,86.21
2018-10-05T03:53:35.558Z,86.49
2018-10-05T03:56:04.998Z,86.10
2018-10-05T03:58:34.583Z,86.68
2018-10-05T04:01:04.325Z,86.59
2018-10-05T04:03:33.618Z,86.00
2018-10-05T04:06:03.333Z,86.50
2018-10-05T04:08:32.711Z,85.92
2018-10-05T04:11:02.041Z,85.84
2018-10-05T04:13:31.747Z,86.20
2018-10-05T04:16:01.016Z,85.75
2018-10-05T04:18:30.579Z,85.92
2018-10-05T04:21:00.300Z,85.47
2018-10-05T04:23:30.083Z,85.70
2018-10-05T04:25:59.387Z,85.03
2018-10-05T04:28:28.646Z,85.01
2018-10-05T04:30:57.972Z,85.37
2018-10-05T04:33:30.001Z,85.30
2018-10-05T04:35:59.754Z,85.46
2018-10-05T04:38:29.058Z,85.38
2018-10-05T04:40:58.305Z,85.24
2018-10-05T04:43:27.887Z,85.23
2018-10-05T04:45:57.136Z,85.22
2018-10-05T04:48:26.462Z,85.15
2018-10-05T04:50:56.052Z,85.04
2018-10-05T04:53:25.503Z,84.88
2018-10-05T04:55:54.906Z,84.50
2018-10-05T04:58:24.503Z,84.66
2018-10-05T05:00:53.921Z,84.56
2018-10-05T05:03:23.472Z,84.66
2018-10-05T05:05:52.950Z,84.57
2018-10-05T05:08:22.193Z,84.56
2018-10-05T05:10:51.591Z,85.10
2018-10-05T05:13:21.040Z,84.93
2018-10-05T05:15:50.100Z,85.22
2018-10-05T05:18:19.315Z,84.56
2018-10-05T05:20:48.574Z,84.36
2018-10-05T05:23:17.861Z,83.82
2018-10-05T05:25:47.464Z,84.18
2018-10-05T05:28:17.144Z,83.46
2018-10-05T05:30:46.732Z,83.33
2018-10-05T05:33:16.262Z,82.96
2018-10-05T05:35:45.709Z,83.41
2018-10-05T05:38:15.095Z,83.50
2018-10-05T05:40:44.718Z,82.24
2018-10-05T05:43:14.584Z,82.57
2018-10-05T05:45:44.364Z,82.87
2018-10-05T05:48:14.188Z,82.48
2018-10-05T05:50:44.134Z,82.92
2018-10-05T05:53:13.616Z,82.97
2018-10-05T05:55:43.340Z,82.56
2018-10-05T05:58:13.060Z,83.06
2018-10-05T06:00:43.111Z,82.77
2018-10-05T06:03:12.941Z,82.79
2018-10-05T06:05:43.062Z,82.48
2018-10-05T06:08:12.965Z,81.95
2018-10-05T06:10:42.590Z,81.97
2018-10-05T06:13:12.386Z,81.95
2018-10-05T06:15:42.208Z,82.23
2018-10-05T06:18:11.488Z,82.04
2018-10-05T06:20:40.982Z,81.20
2018-10-05T06:23:10.873Z,81.56
2018-10-05T06:25:40.434Z,81.08
2018-10-05T06:28:10.107Z,81.11
2018-10-05T06:30:39.699Z,80.75
2018-10-05T06:33:09.209Z,81.13
2018-10-05T06:35:38.896Z,81.09
2018-10-05T06:38:08.405Z,80.86
2018-10-05T06:40:37.973Z,81.27
2018-10-05T06:43:07.507Z,81.37
2018-10-05T06:45:36.866Z,81.59
2018-10-05T06:48:06.178Z,81.44
2018-10-05T06:50:35.844Z,81.04
2018-10-05T06:53:06.521Z,79.98
2018-10-05T06:55:36.522Z,79.73
2018-10-05T06:58:05.849Z,79.15
2018-10-05T07:00:35.366Z,79.20
2018-10-05T07:03:04.940Z,78.83
2018-10-05T07:05:34.869Z,78.81
2018-10-05T07:08:05.378Z,79.05
2018-10-05T07:10:35.256Z,78.50
2018-10-05T07:13:05.379Z,78.02
2018-10-05T07:15:35.337Z,77.76
2018-10-05T07:18:05.259Z,77.24
2018-10-05T07:20:35.853Z,77.38
2018-10-05T07:23:06.248Z,76.39
2018-10-05T07:25:35.717Z,76.70
2018-10-05T07:28:05.665Z,76.80
2018-10-05T07:30:35.729Z,76.66
2018-10-05T07:33:05.269Z,76.30
2018-10-05T07:35:35.842Z,76.41
2018-10-05T07:38:06.043Z,75.31
2018-10-05T07:40:35.570Z,75.22
2018-10-05T07:43:06.539Z,75.46
2018-10-05T07:45:36.316Z,75.25
2018-10-05T07:48:06.958Z,74.81
2018-10-05T07:50:37.042Z,75.63
2018-10-05T07:53:07.400Z,75.15
2018-10-05T07:55:36.816Z,73.89
2018-10-05T07:58:06.960Z,73.80
2018-10-05T08:00:36.474Z,73.54
2018-10-05T08:03:06.721Z,72.87
2018-10-05T08:05:37.069Z,73.16
2018-10-05T08:08:07.119Z,72.65
2018-10-05T08:10:36.472Z,72.26
2018-10-05T08:13:06.490Z,72.82
2018-10-05T08:15:36.008Z,73.20
2018-10-05T08:18:05.408Z,73.53
2018-10-05T08:20:35.150Z,73.13
2018-10-05T08:23:04.871Z,73.51
2018-10-05T08:25:34.091Z,72.37
2018-10-05T08:28:03.585Z,72.70
2018-10-05T08:30:33.161Z,71.11
2018-10-05T08:33:02.750Z,70.93
2018-10-05T08:35:32.307Z,71.58
2018-10-05T08:38:01.890Z,71.30
2018-10-05T08:40:31.269Z,70.90
2018-10-05T08:43:00.636Z,69.87
2018-10-05T08:45:30.256Z,70.18
2018-10-05T08:48:00.262Z,70.41
2018-10-05T08:50:30.165Z,69.37
2018-10-05T08:52:59.628Z,68.05
2018-10-05T08:55:28.946Z,69.02
2018-10-05T08:57:59.814Z,68.36
2018-10-05T09:00:29.421Z,67.66
2018-10-05T09:02:59.958Z,67.05
2018-10-05T09:05:29.690Z,67.23
2018-10-05T09:07:59.064Z,66.26
2018-10-05T09:10:28.676Z,65.38
2018-10-05T09:12:58.299Z,64.54
2018-10-05T09:15:27.808Z,63.47
2018-10-05T09:17:57.458Z,63.14
2018-10-05T09:20:27.872Z,63.12
2018-10-05T09:22:57.384Z,62.63
2018-10-05T09:25:27.000Z,62.82
2018-10-05T09:27:56.666Z,63.27
2018-10-05T09:30:26.211Z,62.22
2018-10-05T09:32:56.104Z,60.80
2018-10-05T09:35:25.808Z,62.06
2018-10-05T09:37:55.317Z,62.94
2018-10-05T09:40:25.221Z,62.30
2018-10-05T09:42:55.082Z,62.72
2018-10-05T09:45:24.765Z,62.61
2018-10-05T09:47:54.720Z,63.21
2018-10-05T09:50:24.386Z,62.66
2018-10-05T09:52:54.112Z,63.32
2018-10-05T09:55:23.980Z,62.49
2018-10-05T09:57:53.705Z,60.52
2018-10-05T10:00:28.817Z,61.19
2018-10-05T10:03:04.715Z,60.22
2018-10-05T10:05:34.647Z,61.54
2018-10-05T10:08:04.185Z,61.23
2018-10-05T10:10:33.582Z,61.76
2018-10-05T10:13:03.112Z,61.35
2018-10-05T10:15:32.657Z,61.62
2018-10-05T10:18:02.190Z,60.89
2018-10-05T10:20:31.642Z,60.75
2018-10-05T10:23:01.435Z,60.58
2018-10-05T10:25:30.734Z,61.07
2018-10-05T10:28:00.188Z,61.21
2018-10-05T10:30:29.797Z,61.01
2018-10-05T10:32:59.174Z,61.37
2018-10-05T10:35:28.605Z,61.17
2018-10-05T10:37:58.348Z,60.92
2018-10-05T10:40:27.750Z,60.31
2018-10-05T10:42:57.251Z,59.37
2018-10-05T10:45:26.862Z,58.28
2018-10-05T10:47:56.256Z,59.05
2018-10-05T10:50:25.623Z,58.32
2018-10-05T10:52:55.241Z,58.30
2018-10-05T10:55:24.856Z,58.47
2018-10-05T10:57:54.158Z,57.81
2018-10-05T11:00:23.710Z,58.64
2018-10-05T11:02:52.931Z,59.04
2018-10-05T11:05:22.336Z,59.05
2018-10-05T11:07:51.948Z,58.80
2018-10-05T11:10:21.331Z,57.95
2018-10-05T11:12:50.901Z,58.08
2018-10-05T11:15:20.378Z,58.14
2018-10-05T11:17:49.919Z,57.88
2018-10-05T11:20:19.366Z,58.70
2018-10-05T11:22:48.817Z,59.02
2018-10-05T11:25:18.143Z,59.03
2018-10-05T11:27:47.382Z,58.68
2018-10-05T11:30:16.869Z,60.05
2018-10-05T11:32:46.101Z,60.52
2018-10-05T11:35:15.661Z,60.03
2018-10-05T11:37:45.427Z,60.16
2018-10-05T11:40:15.311Z,60.62
2018-10-05T11:42:44.955Z,60.61
2018-10-05T11:45:15.204Z,60.73
2018-10-05T11:47:44.660Z,60.61
2018-10-05T11:50:14.234Z,59.68
2018-10-05T11:52:44.149Z,59.26
2018-10-05T11:55:13.803Z,59.59
2018-10-05T11:57:43.789Z,58.71
2018-10-05T12:00:16.345Z,58.86
2018-10-05T12:02:45.893Z,58.02
2018-10-05T12:05:15.639Z,58.24
2018-10-05T12:07:45.422Z,58.67
2018-10-05T12:10:15.163Z,58.79
2018-10-05T12:12:44.889Z,60.26
2018-10-05T12:15:14.537Z,60.51
2018-10-05T12:17:44.207Z,60.57
2018-10-05T12:20:13.530Z,61.37
2018-10-05T12:22:43.050Z,62.09
2018-10-05T12:25:12.676Z,63.20
2018-10-05T12:27:42.048Z,63.87
2018-10-05T12:30:11.887Z,64.60
2018-10-05T12:32:41.509Z,65.15
2018-10-05T12:35:11.368Z,66.79
2018-10-05T12:37:41.335Z,67.50
2018-10-05T12:40:10.806Z,68.07
2018-10-05T12:42:40.501Z,69.09
2018-10-05T12:45:10.185Z,70.06
2018-10-05T12:47:39.940Z,69.84
2018-10-05T12:50:09.813Z,70.25
2018-10-05T12:52:39.481Z,70.29
2018-10-05T12:55:08.959Z,70.31
2018-10-05T12:57:38.630Z,70.82
2018-10-05T13:00:08.631Z,71.23
2018-10-05T13:02:38.068Z,70.96
2018-10-05T13:05:07.453Z,72.00
2018-10-05T13:07:36.809Z,72.14
2018-10-05T13:10:06.451Z,72.55
2018-10-05T13:12:35.948Z,73.47
2018-10-05T13:15:05.831Z,74.06
2018-10-05T13:17:35.266Z,74.08
2018-10-05T13:20:04.991Z,74.07
2018-10-05T13:22:34.577Z,74.61
2018-10-05T13:25:04.026Z,74.87
2018-10-05T13:27:33.365Z,75.09
2018-10-05T13:30:03.069Z,75.56
2018-10-05T13:32:32.473Z,75.50
2018-10-05T13:35:01.853Z,75.63
2018-10-05T13:37:31.563Z,75.87
2018-10-05T13:40:01.077Z,76.18
2018-10-05T13:42:30.404Z,75.83
2018-10-05T13:44:59.899Z,75.61
2018-10-05T13:47:29.434Z,75.62
2018-10-05T13:49:59.162Z,76.36
2018-10-05T13:52:29.198Z,76.79
2018-10-05T13:54:59.220Z,76.32
2018-10-05T13:57:28.699Z,76.90
2018-10-05T13:59:58.422Z,77.08
2018-10-05T14:02:27.969Z,77.23
2018-10-05T14:04:57.490Z,76.92
2018-10-05T14:07:27.302Z,77.34
2018-10-05T14:09:56.844Z,78.13
2018-10-05T14:12:26.299Z,78.03
2018-10-05T14:14:56.001Z,78.31
2018-10-05T14:17:25.495Z,78.26
2018-10-05T14:19:54.793Z,78.45
2018-10-05T14:22:24.466Z,79.00
2018-10-05T14:24:54.439Z,79.25
2018-10-05T14:27:24.280Z,78.61
2018-10-05T14:29:53.794Z,79.10
2018-10-05T14:32:23.361Z,79.01
2018-10-05T14:34:52.639Z,79.55
2018-10-05T14:37:22.398Z,79.74
2018-10-05T14:39:52.002Z,79.17
2018-10-05T14:42:21.340Z,79.38
2018-10-05T14:44:50.994Z,79.00
2018-10-05T14:47:20.083Z,79.25
2018-10-05T14:49:49.845Z,78.93
2018-10-05T14:55:10.439Z,80.00
2018-10-05T14:57:39.655Z,80.51
2018-10-05T15:00:09.505Z,80.23
2018-10-05T15:02:39.143Z,79.95
2018-10-05T15:05:08.629Z,80.31
2018-10-05T15:07:37.985Z,80.42
2018-10-05T15:10:07.922Z,80.52
2018-10-05T15:12:37.274Z,80.33
2018-10-05T15:15:07.372Z,79.73
2018-10-05T15:17:36.823Z,80.31
2018-10-05T15:20:06.401Z,79.99
2018-10-05T15:22:36.138Z,80.15
2018-10-05T15:25:06.376Z,80.38
2018-10-05T15:27:36.481Z,80.40
2018-10-05T15:30:06.663Z,80.47
2018-10-05T15:32:36.313Z,80.43
2018-10-05T15:35:06.844Z,81.00
2018-10-05T15:37:36.168Z,81.03
2018-10-05T15:40:05.747Z,80.75
2018-10-05T15:42:35.509Z,80.75
2018-10-05T15:45:04.929Z,80.92
2018-10-05T15:47:35.028Z,81.05
2018-10-05T15:50:05.599Z,80.89
2018-10-05T15:52:35.025Z,81.28
2018-10-05T15:55:04.815Z,81.27
2018-10-05T15:57:34.463Z,81.04
2018-10-05T16:00:04.307Z,81.05
2018-10-05T16:02:33.881Z,80.91
2018-10-05T16:05:03.589Z,81.14
2018-10-05T16:07:33.148Z,81.33
2018-10-05T16:10:02.778Z,81.48
2018-10-05T16:12:32.328Z,81.60
2018-10-05T16:15:01.960Z,81.36
2018-10-05T16:17:31.236Z,81.60
2018-10-05T16:20:00.997Z,81.15
2018-10-05T16:22:30.282Z,81.56
2018-10-05T16:24:59.800Z,81.50
2018-10-05T16:27:29.682Z,81.91
2018-10-05T16:29:59.056Z,81.79
2018-10-05T16:32:28.520Z,82.09
2018-10-05T16:34:58.191Z,82.11
2018-10-05T16:37:27.499Z,81.81
2018-10-05T16:39:58.003Z,82.08
2018-10-05T16:42:27.900Z,82.03
2018-10-05T16:44:57.636Z,82.16
2018-10-05T16:47:26.953Z,81.97
2018-10-05T16:49:56.892Z,81.86
2018-10-05T16:52:26.343Z,81.93
2018-10-05T16:54:55.703Z,81.78
2018-10-05T16:57:25.585Z,82.07
2018-10-05T16:59:55.289Z,82.41
2018-10-05T17:02:24.883Z,81.98
2018-10-05T17:04:54.677Z,81.84
2018-10-05T17:07:24.564Z,81.63
2018-10-05T17:09:54.092Z,81.98
2018-10-05T17:12:24.043Z,81.72
2018-10-05T17:14:53.649Z,81.59
2018-10-05T17:17:23.248Z,81.04
2018-10-05T17:19:53.136Z,80.97
2018-10-05T17:22:23.738Z,80.94
2018-10-05T17:24:53.344Z,80.81
2018-10-05T17:27:22.854Z,80.62
2018-10-05T17:29:52.188Z,81.07
2018-10-05T17:32:22.084Z,81.19
2018-10-05T17:34:51.877Z,81.31
2018-10-05T17:37:21.250Z,81.87
2018-10-05T17:39:50.859Z,81.33
2018-10-05T17:42:20.238Z,81.74
2018-10-05T17:44:49.650Z,81.85
2018-10-05T17:47:18.978Z,82.04
2018-10-05T17:49:48.700Z,82.47
2018-10-05T17:52:18.464Z,82.38
2018-10-05T17:54:47.971Z,82.29
2018-10-05T17:57:18.447Z,82.53
2018-10-05T17:59:48.002Z,82.57
2018-10-05T18:02:17.734Z,82.63
2018-10-05T18:04:47.675Z,82.68
2018-10-05T18:07:17.252Z,82.44
2018-10-05T18:09:46.687Z,82.42
2018-10-05T18:12:16.653Z,82.58
2018-10-05T18:14:46.079Z,82.56
2018-10-05T18:17:15.517Z,82.17
2018-10-05T18:19:45.338Z,82.17
2018-10-05T18:22:15.076Z,82.65
2018-10-05T18:24:45.901Z,82.54
2018-10-05T18:27:15.774Z,82.64
2018-10-05T18:29:45.942Z,82.77
2018-10-05T18:32:15.635Z,82.93
2018-10-05T18:34:45.802Z,82.94
2018-10-05T18:37:15.324Z,82.59
2018-10-05T18:39:45.082Z,83.20
2018-10-05T18:42:14.995Z,83.15
2018-10-05T18:44:44.848Z,83.27
2018-10-05T18:47:14.837Z,82.83
2018-10-05T18:49:45.090Z,83.13
2018-10-05T18:52:15.140Z,83.33
2018-10-05T18:54:44.969Z,83.12
2018-10-05T18:57:19.412Z,83.43
2018-10-05T18:59:48.797Z,83.20
2018-10-05T19:02:19.233Z,82.92
2018-10-05T19:04:49.319Z,82.89
2018-10-05T19:07:18.933Z,83.23
2018-10-05T19:09:48.975Z,83.08
2018-10-05T19:12:18.490Z,82.58
2018-10-05T19:14:47.945Z,82.92
2018-10-05T19:17:17.811Z,82.76
2018-10-05T19:19:47.563Z,82.62
2018-10-05T19:22:17.793Z,82.65
2018-10-05T19:24:47.552Z,82.88
2018-10-05T19:27:16.897Z,83.24
2018-10-05T19:29:46.610Z,82.69
2018-10-05T19:32:16.633Z,82.85
2018-10-05T19:34:46.604Z,82.48
2018-10-05T19:37:15.951Z,82.53
2018-10-05T19:39:46.892Z,82.68
2018-10-05T19:42:16.380Z,83.06
2018-10-05T19:44:46.550Z,82.88
2018-10-05T19:47:16.059Z,82.95
2018-10-05T19:49:45.638Z,82.84
2018-10-05T19:52:15.383Z,82.77
2018-10-05T19:54:45.594Z,83.07
2018-10-05T19:57:15.157Z,82.77
2018-10-05T19:59:47.044Z,83.50
2018-10-05T20:02:16.637Z,83.02
2018-10-05T20:04:46.913Z,83.34
2018-10-05T20:07:16.574Z,83.25
2018-10-05T20:09:46.608Z,83.10
2018-10-05T20:12:16.191Z,83.00
2018-10-05T20:14:46.020Z,83.86
2018-10-05T20:17:15.663Z,83.37
2018-10-05T20:19:45.572Z,83.73
2018-10-05T20:22:15.329Z,83.31
2018-10-05T20:24:45.482Z,83.74
2018-10-05T20:27:14.973Z,83.63
2018-10-05T20:29:44.873Z,83.43
2018-10-05T20:32:14.747Z,83.32
2018-10-05T20:34:44.443Z,83.27
2018-10-05T20:37:14.440Z,82.94
2018-10-05T20:39:44.225Z,83.26
2018-10-05T20:42:13.789Z,83.42
2018-10-05T20:44:43.541Z,83.24
2018-10-05T20:47:13.368Z,83.23
2018-10-05T20:49:42.863Z,83.67
2018-10-05T20:52:13.192Z,83.20
2018-10-05T20:54:42.703Z,83.19
2018-10-05T20:57:12.457Z,82.90
2018-10-05T20:59:42.324Z,83.11
2018-10-05T21:02:11.880Z,82.88
2018-10-05T21:04:41.571Z,83.20
2018-10-05T21:07:11.323Z,82.73
2018-10-05T21:09:41.043Z,83.07
2018-10-05T21:12:10.134Z,82.95
2018-10-05T21:14:39.621Z,83.11
2018-10-05T21:17:09.091Z,82.83
2018-10-05T21:19:38.694Z,82.77
2018-10-05T21:22:08.530Z,83.29
2018-10-05T21:24:38.224Z,83.35
2018-10-05T21:27:07.615Z,83.84
2018-10-05T21:29:37.067Z,83.69
2018-10-05T21:32:06.487Z,83.95
2018-10-05T21:34:35.849Z,83.91
2018-10-05T21:37:05.445Z,83.60
2018-10-05T21:39:34.855Z,84.03
2018-10-05T21:42:05.249Z,84.34
2018-10-05T21:44:35.074Z,84.32
2018-10-05T21:47:04.419Z,83.84
2018-10-05T21:49:34.816Z,83.73
2018-10-05T21:52:04.303Z,83.70
2018-10-05T21:54:33.874Z,83.82
2018-10-05T21:57:04.028Z,84.05
2018-10-05T21:59:33.430Z,83.79
2018-10-05T22:02:03.214Z,83.80
2018-10-05T22:04:32.760Z,83.33
2018-10-05T22:07:02.097Z,83.46
2018-10-05T22:09:31.851Z,83.57
2018-10-05T22:12:01.249Z,83.39
2018-10-05T22:14:30.585Z,83.32
2018-10-05T22:17:00.090Z,83.42
2018-10-05T22:19:29.495Z,83.25
2018-10-05T22:21:58.944Z,83.58
2018-10-05T22:24:28.359Z,83.59
2018-10-05T22:26:58.319Z,83.21
2018-10-05T22:29:27.688Z,82.81
2018-10-05T22:31:57.238Z,82.46
2018-10-05T22:34:26.619Z,82.97
2018-10-05T22:36:56.151Z,82.49
2018-10-05T22:39:25.603Z,83.04
2018-10-05T22:41:55.716Z,82.75
2018-10-05T22:44:25.020Z,82.91
2018-10-05T22:46:54.836Z,82.83
2018-10-05T22:49:24.264Z,82.71
2018-10-05T22:51:53.779Z,82.69
2018-10-05T22:54:23.287Z,82.90
2018-10-05T22:56:52.945Z,83.28
2018-10-05T22:59:22.640Z,83.36
2018-10-05T23:01:52.030Z,83.11
2018-10-05T23:04:21.372Z,83.13
2018-10-05T23:06:51.010Z,83.28
2018-10-05T23:09:20.865Z,83.20
2018-10-05T23:11:50.388Z,83.21
2018-10-05T23:14:19.796Z,83.26
2018-10-05T23:16:49.283Z,83.35
2018-10-05T23:19:18.884Z,82.92
2018-10-05T23:21:48.388Z,82.90
2018-10-05T23:24:18.428Z,83.15
2018-10-05T23:26:47.915Z,83.04
2018-10-05T23:29:17.371Z,83.04
2018-10-05T23:31:47.496Z,83.35
2018-10-05T23:34:17.067Z,83.29
2018-10-05T23:36:46.421Z,83.37
2018-10-05T23:39:16.204Z,83.40
2018-10-05T23:41:46.508Z,83.45
2018-10-05T23:44:16.411Z,83.27
2018-10-05T23:46:45.947Z,83.18
2018-10-05T23:49:15.417Z,82.92
2018-10-05T23:51:44.908Z,83.22
2018-10-05T23:54:14.643Z,83.36
2018-10-05T23:56:44.190Z,83.43
2018-10-05T23:59:13.837Z,83.37
